Waubun, MN (56589)

10:51 AM CST on March 03, 2015 (GMT -0600)
East of Syre on 113 | Change Station
CLOSE
Current Station
Personal Weather Station
Location: Twin Valley, MN
Elevation: 1207 ft
Nearby Weather Stations
Active Advisory: Winter Weather Advisory

Elev 1207 ft 47.18 °N, 96.19 °W | Updated 16 seconds ago

Overcast
Overcast
15.1 °F
Feels Like 8 °F
N
4.5
Wind Variable Wind from NNW
Gusts 4.9 mph

Today
High -- | Low -- °F
--% Chance of Precip.
Yesterday
High -- | Low -- °F
Precip. -- in
7:00 AM 6:11 PM
Waxing Gibbous, 96% visible
Pressure 29.79 in
Visibility 1.2 miles
Clouds Mostly Cloudy 400 ft
Mostly Cloudy 1100 ft
Mostly Cloudy 1700 ft
Windchill 8 °F
Dew Point 4 °F
Humidity 62%
Rainfall 0.00 in
Snow Depth Not available.
UV 3.0 out of 12
Pollen .10 out of 12
Air Quality Not available.
Flu Activity Not available.
METAR KDTL 031635Z AUTO 33017G23KT 1 1/4SM -SN BKN004 BKN011 BKN017 M09/M12 A2979 RMK AO2

More Conditions Fewer Conditions

Pressure 29.79 in
Visibility 1.2 miles
Clouds Mostly Cloudy 400 ft
Mostly Cloudy 1100 ft
Mostly Cloudy 1700 ft
Windchill 8 °F
Dew Point 4 °F
Humidity 62%
Rainfall 0.00 in
Snow Depth Not available.
UV 3.0 out of 12
Pollen .10 out of 12
Air Quality Not available.
Flu Activity Not available.
METAR KDTL 031635Z AUTO 33017G23KT 1 1/4SM -SN BKN004 BKN011 BKN017 M09/M12 A2979 RMK AO2

More Conditions Fewer Conditions

10-Day Weather Forecast

Almanac

Astronomy

Mar. 03, 2015 Rise Set
Actual Time
Civil Twilight
Nautical Twilight
Astronomical Twilight
Moon
Length of Visible Light
Length of Day
Tomorrow will be .
, % of the Moon is Illuminated

Today's Extremes

State Highs State Lows

Community

WunderPhotos

Upload Photos

1,802,170 photos uploaded!

WunderBlogs® & News

Nearby

Air Quality

  Air Quality AQ Index Pollutant
Not available.

Snow Depth

Station Depth Elevation

Earthquake Activity

City Distance Mag. Time & Date
Minimum magnitude displayed is 2.5.

Coastal Water Temperatures

Place Temperature

Nearby Weather Stations

Winter Weather Advisory
Statement as of 9:31 AM CST on March 03, 2015

... Winter Weather Advisory remains in effect until 6 PM CST this
evening...

A Winter Weather Advisory remains in effect until 6 PM CST this
evening.

* Timing... through today.

* Winds... northwest winds will increase to between 20 and 25 mph
by late morning.

* Visibilities... reduced to one half mile or less at times in
open country.

* Snow accumulations... there could be some light snow this
morning... but the threat for accumulating snow has ended.

* Wind chill values... dangerous wind chills will develop tonight.

Precautionary/preparedness actions...

A Winter Weather Advisory for snow means that periods of snow
will cause primarily travel difficulties. Be prepared for snow
covered roads and limited visibilities... and use caution while
driving.